ADDS METAR Data INFO
IDs: Format: Raw Decoded Include TAF

Data at: 0959 UTC 22 May 2018

KPPA 220935Z AUTO 21010KT 10SM CLR 18/16 A3005 RMK AO2 T01770156
KPPA 220915Z AUTO 19010KT 10SM CLR 18/16 A3005 RMK AO2 T01750155
KPPA 220855Z AUTO 18011KT 10SM CLR 18/16 A3005 RMK AO2 T01760156
KPPA 220835Z AUTO 19010KT 10SM CLR 18/16 A3005 RMK AO2 T01750156
KPPA 220815Z AUTO 19008KT 10SM CLR 18/15 A3005 RMK AO2 LTG DSNT W T01750154
KPPA 220755Z AUTO 19011KT 10SM CLR 18/15 A3005 RMK AO2 T01750154
KPPA 220735Z AUTO 19009KT 10SM CLR 18/16 A3006 RMK AO2 LTG DSNT W T01770155
KPPA 220715Z AUTO 19011KT 10SM CLR 18/16 A3006 RMK AO2 T01800155
KPPA 220655Z AUTO 19012KT 10SM CLR 18/16 A3006 RMK AO2 T01800155
KPPA 220635Z AUTO 18009KT 10SM CLR 18/15 A3006 RMK AO2 T01810153
KPPA 220615Z AUTO 18009KT 10SM CLR 19/15 A3005 RMK AO2 T01850151
KPPA 220555Z AUTO 17010KT 10SM CLR 19/15 A3005 RMK AO2 T01870151 10270 20176 402770118
KPPA 220530Z AUTO 16008KT 10SM CLR 18/15 A3005 RMK AO2 T01830150
KPPA 220515Z AUTO 16007KT 10SM CLR 18/15 A3005 RMK AO2 T01820148
KPPA 220455Z AUTO 16007KT 10SM CLR 19/15 A3005 RMK AO2 T01860150
KPPA 220435Z AUTO 15007KT 10SM CLR 18/15 A3005 RMK AO2 T01780146
KPPA 220415Z AUTO 15007KT 10SM CLR 18/15 A3005 RMK AO2 LTG DSNT W T01830145
KPPA 220355Z AUTO 15008KT 10SM CLR 19/15 A3005 RMK AO2 T01900145
KPPA 220335Z AUTO 14007KT 10SM CLR 19/15 A3005 RMK AO2 T01920145
KPPA 220315Z AUTO 15008KT 10SM CLR 20/15 A3005 RMK AO2 T02000145
KPPA 220255Z AUTO 16008KT 10SM CLR 21/15 A3005 RMK AO2 T02060145
KPPA 220235Z AUTO 16010KT 10SM CLR 21/15 A3005 RMK AO2 T02110146
KPPA 220215Z AUTO 17009KT 10SM CLR 22/15 A3005 RMK AO2 T02170147
KPPA 220155Z AUTO 17010G15KT 10SM CLR 22/15 A3004 RMK AO2 T02220147
KPPA 220135Z AUTO 17011KT 10SM CLR 23/15 A3003 RMK AO2 T02270146
KPPA 220115Z AUTO 17010KT 10SM CLR 24/15 A3003 RMK AO2 T02350145
KPPA 220055Z AUTO 18011G16KT 10SM CLR 24/14 A3003 RMK AO2 T02410140
KPPA 220035Z AUTO 18011KT 10SM CLR 25/14 A3002 RMK AO2 T02460136
KPPA 220015Z AUTO 17012KT 10SM CLR 26/13 A3002 RMK AO2 T02550130
KPPA 212355Z AUTO 17012G17KT 10SM CLR 27/13 A3001 RMK AO2 T02700129 10277 20235
KPPA 212335Z AUTO 17009KT 10SM CLR 27/13 A3001 RMK AO2 T02730128
KPPA 212315Z AUTO 17011G15KT 10SM CLR 28/13 A3001 RMK AO2 T02760132
KPPA 212255Z AUTO 19012G17KT 10SM CLR 27/13 A3001 RMK AO2 T02740131
KPPA 212235Z AUTO 18014G20KT 10SM CLR 27/13 A3002 RMK AO2 T02730132
KPPA 212215Z AUTO 19011G18KT 10SM CLR 27/14 A3002 RMK AO2 T02730135
KPPA 212155Z AUTO 20013G17KT 10SM SCT046 27/14 A3003 RMK AO2 T02710135
KPPA 212135Z AUTO 17010G17KT 10SM SCT044 27/14 A3004 RMK AO2 T02720137
KPPA 212115Z AUTO 19012G17KT 10SM BKN044 27/14 A3005 RMK AO2 T02710136
KPPA 212055Z AUTO 19010KT 10SM BKN044 BKN049 26/13 A3006 RMK AO2 T02560133
KPPA 212035Z AUTO 21011G16KT 10SM BKN042 BKN048 26/14 A3008 RMK AO2 T02590139
KPPA 212015Z AUTO 22011G15KT 10SM BKN040 BKN048 25/14 A3009 RMK AO2 T02540136
KPPA 211955Z AUTO 21011KT 10SM OVC040 25/14 A3010 RMK AO2 T02510139
KPPA 211935Z AUTO 22008KT 10SM BKN040 25/14 A3011 RMK AO2 T02470137
KPPA 211915Z AUTO 21009KT 10SM BKN040 25/14 A3012 RMK AO2 T02500137
KPPA 211855Z AUTO 21011KT 10SM OVC042 25/14 A3012 RMK AO2 T02460136
KPPA 211835Z AUTO 20010G18KT 10SM OVC040 24/13 A3013 RMK AO2 T02440133
KPPA 211815Z AUTO 21011KT 10SM OVC038 24/14 A3013 RMK AO2 T02390136
KPPA 211755Z AUTO 20013KT 10SM OVC036 24/14 A3014 RMK AO2 T02350136 10240 20121
KPPA 211735Z AUTO 20013KT 10SM BKN034 OVC041 24/14 A3014 RMK AO2 T02380138
KPPA 211715Z AUTO 20014G18KT 10SM BKN032 23/14 A3014 RMK AO2 T02290137
KPPA 211655Z AUTO 20014G18KT 10SM BKN030 23/14 A3015 RMK AO2 T02260139
KPPA 211635Z AUTO 19012G21KT 10SM SCT026 SCT033 23/14 A3016 RMK AO2 T02260141
KPPA 211615Z AUTO 20016G21KT 10SM SCT026 SCT065 23/14 A3015 RMK AO2 T02250142
KPPA 211555Z AUTO 19016G21KT 10SM SCT024 SCT060 21/14 A3016 RMK AO2 T02140141
KPPA 211535Z AUTO 18019KT 10SM SCT024 SCT060 22/14 A3016 RMK AO2 T02170137
KPPA 211515Z AUTO 18017G22KT 10SM CLR 22/14 A3016 RMK AO2 T02160140
KPPA 211455Z AUTO 18017KT 10SM CLR 21/14 A3015 RMK AO2 T02090141
KPPA 211435Z AUTO 18016KT 10SM CLR 20/14 A3015 RMK AO2 T02010143
KPPA 211415Z AUTO 18013KT 10SM CLR 19/15 A3015 RMK AO2 T01910146
KPPA 211355Z AUTO 19009KT 10SM CLR 19/15 A3016 RMK AO2 T01850149
KPPA 211335Z AUTO 19007KT 10SM CLR 17/15 A3014 RMK AO2 T01730149
KPPA 211315Z AUTO 19005KT 10SM CLR 16/15 A3014 RMK AO2 T01620145
KPPA 211255Z AUTO 18003KT 10SM CLR 15/14 A3014 RMK AO2 T01520142
KPPA 211235Z AUTO 18004KT 7SM CLR 14/13 A3012 RMK AO2 T01390130
KPPA 211215Z AUTO 19004KT 5SM BR CLR 13/12 A3012 RMK AO2 T01260119
KPPA 211155Z AUTO 20004KT 5SM BR CLR 12/11 A3011 RMK AO2 T01210113 10155 20118
KPPA 211135Z AUTO 20006KT 5SM BR CLR 12/11 A3011 RMK AO2 T01190110
KPPA 211115Z AUTO 20005KT 7SM CLR 12/11 A3010 RMK AO2 T01220113
KPPA 211055Z AUTO 20006KT 7SM CLR 12/11 A3011 RMK AO2 T01210112
KPPA 211035Z AUTO 19007KT 7SM CLR 12/11 A3011 RMK AO2 T01200110
KPPA 211015Z AUTO 20004KT 10SM CLR 13/12 A3011 RMK AO2 T01250115
KPPA 210955Z AUTO 23004KT 10SM CLR 13/12 A3012 RMK AO2 T01250115
KPPA 210935Z AUTO 21005KT 10SM CLR 13/12 A3011 RMK AO2 T01320120
KPPA 210915Z AUTO 21005KT 10SM CLR 13/12 A3012 RMK AO2 T01300119
KPPA 210855Z AUTO 20003KT 10SM CLR 13/12 A3012 RMK AO2 T01280115
KPPA 210835Z AUTO 21005KT 10SM CLR 14/12 A3013 RMK AO2 T01350117
KPPA 210815Z AUTO 19004KT 10SM CLR 15/13 A3013 RMK AO2 T01460125
KPPA 210755Z AUTO 17003KT 10SM CLR 15/13 A3012 RMK AO2 T01490125
KPPA 210735Z AUTO 17003KT 10SM CLR 15/13 A3013 RMK AO2 T01460125
KPPA 210715Z AUTO 18003KT 10SM CLR 15/12 A3013 RMK AO2 T01460124
KPPA 210655Z AUTO 18003KT 10SM CLR 14/12 A3014 RMK AO2 T01380116
KPPA 210635Z AUTO 15004KT 10SM CLR 15/12 A3014 RMK AO2 T01480120
KPPA 210615Z AUTO 15005KT 10SM CLR 15/12 A3013 RMK AO2 T01540122
KPPA 210555Z AUTO 14006KT 10SM CLR 15/12 A3012 RMK AO2 T01530122 10236 20145 402410105
KPPA 210535Z AUTO 16008KT 10SM CLR 15/12 A3013 RMK AO2 T01530120
KPPA 210515Z AUTO 15007KT 10SM CLR 16/12 A3014 RMK AO2 T01610121
KPPA 210455Z AUTO 15008KT 10SM CLR 16/12 A3014 RMK AO2 T01640121
KPPA 210435Z AUTO 15006KT 10SM CLR 17/12 A3013 RMK AO2 T01650120
KPPA 210415Z AUTO 15006KT 10SM CLR 16/12 A3013 RMK AO2 T01570120
KPPA 210355Z AUTO 14007KT 10SM CLR 17/12 A3013 RMK AO2 T01700120
KPPA 210335Z AUTO 14006KT 10SM CLR 17/12 A3013 RMK AO2 T01700120
KPPA 210315Z AUTO 15006KT 10SM CLR 18/12 A3012 RMK AO2 T01760120
KPPA 210255Z AUTO 14007KT 10SM CLR 18/12 A3012 RMK AO2 LTG DSNT N T01790118
KPPA 210235Z AUTO 13007KT 10SM CLR 18/12 A3012 RMK AO2 T01800120
KPPA 210215Z AUTO 14007KT 10SM CLR 19/12 A3011 RMK AO2 T01850117
KPPA 210155Z AUTO 13007KT 10SM CLR 19/11 A3010 RMK AO2 T01930112
KPPA 210135Z AUTO 13007KT 10SM CLR 20/11 A3010 RMK AO2 T02020110
KPPA 210115Z AUTO 12008KT 10SM CLR 22/10 A3010 RMK AO2 T02150102
KPPA 210055Z AUTO 12007KT 10SM CLR 22/10 A3009 RMK AO2 T02220099
KPPA 210035Z AUTO 12008KT 10SM CLR 23/10 A3008 RMK AO2 T02280098
KPPA 210015Z AUTO 11006KT 10SM CLR 23/10 A3008 RMK AO2 T02310095
KPPA 202355Z AUTO 11006KT 10SM CLR 24/10 A3009 RMK AO2 T02350095 10241 20183
KPPA 202335Z AUTO 08006KT 10SM CLR 24/09 A3009 RMK AO2 T02400093
KPPA 202315Z AUTO 10007KT 7SM CLR 24/09 A3010 RMK AO2 T02400089
KPPA 202255Z AUTO 07005KT 10SM CLR 24/09 A3010 RMK AO2 T02400087
KPPA 202235Z AUTO 06006KT 10SM CLR 24/09 A3009 RMK AO2 T02350085
KPPA 202215Z AUTO 14005KT 10SM CLR 24/09 A3010 RMK AO2 T02350086